sensor_id;sensor_type;location;lat;lon;timestamp;temperature;humidity
3562;DHT22;1795;52.074;4.754;2023-02-26T00:01:20;2.40;99.90
3562;DHT22;1795;52.074;4.754;2023-02-26T00:03:49;2.40;99.90
3562;DHT22;1795;52.074;4.754;2023-02-26T00:06:17;2.40;99.90
3562;DHT22;1795;52.074;4.754;2023-02-26T00:08:45;2.30;99.90
3562;DHT22;1795;52.074;4.754;2023-02-26T00:11:13;2.30;99.90
3562;DHT22;1795;52.074;4.754;2023-02-26T00:13:44;2.40;99.90
3562;DHT22;1795;52.074;4.754;2023-02-26T00:16:22;2.30;99.90
3562;DHT22;1795;52.074;4.754;2023-02-26T00:18:52;2.30;99.90
3562;DHT22;1795;52.074;4.754;2023-02-26T00:21:22;2.30;99.90
3562;DHT22;1795;52.074;4.754;2023-02-26T00:23:51;2.30;99.90
3562;DHT22;1795;52.074;4.754;2023-02-26T00:26:20;2.30;99.90
3562;DHT22;1795;52.074;4.754;2023-02-26T00:28:48;2.30;99.90
3562;DHT22;1795;52.074;4.754;2023-02-26T00:31:17;2.20;99.90
3562;DHT22;1795;52.074;4.754;2023-02-26T00:33:52;2.20;99.90
3562;DHT22;1795;52.074;4.754;2023-02-26T00:36:23;2.20;99.90
3562;DHT22;1795;52.074;4.754;2023-02-26T00:39:00;2.20;99.90
3562;DHT22;1795;52.074;4.754;2023-02-26T00:41:30;2.20;99.90
3562;DHT22;1795;52.074;4.754;2023-02-26T00:43:58;2.20;99.90
3562;DHT22;1795;52.074;4.754;2023-02-26T00:46:35;2.20;99.90
3562;DHT22;1795;52.074;4.754;2023-02-26T00:49:17;2.20;99.90
3562;DHT22;1795;52.074;4.754;2023-02-26T00:51:48;2.20;99.90
3562;DHT22;1795;52.074;4.754;2023-02-26T00:54:19;2.20;99.90
3562;DHT22;1795;52.074;4.754;2023-02-26T00:56:49;2.20;99.90
3562;DHT22;1795;52.074;4.754;2023-02-26T00:59:18;2.20;99.90
3562;DHT22;1795;52.074;4.754;2023-02-26T01:01:46;2.20;99.90
3562;DHT22;1795;52.074;4.754;2023-02-26T01:04:17;2.20;99.90
3562;DHT22;1795;52.074;4.754;2023-02-26T01:06:48;2.20;99.90
3562;DHT22;1795;52.074;4.754;2023-02-26T01:09:22;2.20;99.90
3562;DHT22;1795;52.074;4.754;2023-02-26T01:11:52;2.20;99.90
3562;DHT22;1795;52.074;4.754;2023-02-26T01:14:21;2.20;99.90
3562;DHT22;1795;52.074;4.754;2023-02-26T01:16:54;2.20;99.90
3562;DHT22;1795;52.074;4.754;2023-02-26T01:19:30;2.30;99.90
3562;DHT22;1795;52.074;4.754;2023-02-26T01:22:05;2.30;99.90
3562;DHT22;1795;52.074;4.754;2023-02-26T01:24:35;2.20;99.90
3562;DHT22;1795;52.074;4.754;2023-02-26T01:27:04;2.20;99.90
3562;DHT22;1795;52.074;4.754;2023-02-26T01:29:32;2.20;99.90
3562;DHT22;1795;52.074;4.754;2023-02-26T01:32:05;2.20;99.90
3562;DHT22;1795;52.074;4.754;2023-02-26T01:34:41;2.20;99.90
3562;DHT22;1795;52.074;4.754;2023-02-26T01:37:20;2.20;99.90
3562;DHT22;1795;52.074;4.754;2023-02-26T01:42:38;2.20;99.90
3562;DHT22;1795;52.074;4.754;2023-02-26T01:45:11;2.20;99.90
3562;DHT22;1795;52.074;4.754;2023-02-26T01:47:47;2.20;99.90
3562;DHT22;1795;52.074;4.754;2023-02-26T01:50:19;2.20;99.90
3562;DHT22;1795;52.074;4.754;2023-02-26T01:55:54;2.20;99.90
3562;DHT22;1795;52.074;4.754;2023-02-26T01:58:23;2.20;99.90
3562;DHT22;1795;52.074;4.754;2023-02-26T02:00:52;2.20;99.90
3562;DHT22;1795;52.074;4.754;2023-02-26T02:03:21;2.20;99.90
3562;DHT22;1795;52.074;4.754;2023-02-26T02:05:55;2.20;99.90
3562;DHT22;1795;52.074;4.754;2023-02-26T02:08:24;2.20;99.90
3562;DHT22;1795;52.074;4.754;2023-02-26T02:10:53;2.10;99.90
3562;DHT22;1795;52.074;4.754;2023-02-26T02:13:45;2.10;99.90
3562;DHT22;1795;52.074;4.754;2023-02-26T02:16:26;2.10;99.90
3562;DHT22;1795;52.074;4.754;2023-02-26T02:19:00;2.10;99.90
3562;DHT22;1795;52.074;4.754;2023-02-26T02:21:46;2.20;99.90
3562;DHT22;1795;52.074;4.754;2023-02-26T02:24:23;2.10;99.90
3562;DHT22;1795;52.074;4.754;2023-02-26T02:27:06;2.10;99.90
3562;DHT22;1795;52.074;4.754;2023-02-26T02:32:44;2.10;99.90
3562;DHT22;1795;52.074;4.754;2023-02-26T02:35:17;2.00;99.90
3562;DHT22;1795;52.074;4.754;2023-02-26T02:37:52;2.00;99.90
3562;DHT22;1795;52.074;4.754;2023-02-26T02:40:23;2.00;99.90
3562;DHT22;1795;52.074;4.754;2023-02-26T02:42:56;2.00;99.90
3562;DHT22;1795;52.074;4.754;2023-02-26T02:45:28;2.00;99.90
3562;DHT22;1795;52.074;4.754;2023-02-26T02:48:04;2.00;99.90
3562;DHT22;1795;52.074;4.754;2023-02-26T02:50:36;1.90;99.90
3562;DHT22;1795;52.074;4.754;2023-02-26T02:53:08;1.90;99.90
3562;DHT22;1795;52.074;4.754;2023-02-26T02:55:39;1.90;99.90
3562;DHT22;1795;52.074;4.754;2023-02-26T02:58:12;1.90;99.90
3562;DHT22;1795;52.074;4.754;2023-02-26T03:00:49;1.90;99.90
3562;DHT22;1795;52.074;4.754;2023-02-26T03:03:23;1.90;99.90
3562;DHT22;1795;52.074;4.754;2023-02-26T03:05:53;1.80;99.90
3562;DHT22;1795;52.074;4.754;2023-02-26T03:08:24;1.80;99.90
3562;DHT22;1795;52.074;4.754;2023-02-26T03:10:53;1.80;99.90
3562;DHT22;1795;52.074;4.754;2023-02-26T03:13:23;1.80;99.90
3562;DHT22;1795;52.074;4.754;2023-02-26T03:16:00;1.80;99.90
3562;DHT22;1795;52.074;4.754;2023-02-26T03:18:39;1.70;99.90
3562;DHT22;1795;52.074;4.754;2023-02-26T03:21:12;1.70;99.90
3562;DHT22;1795;52.074;4.754;2023-02-26T03:23:48;1.70;99.90
3562;DHT22;1795;52.074;4.754;2023-02-26T03:26:26;1.70;99.90
3562;DHT22;1795;52.074;4.754;2023-02-26T03:29:01;1.70;99.90
3562;DHT22;1795;52.074;4.754;2023-02-26T03:31:36;1.70;99.90
3562;DHT22;1795;52.074;4.754;2023-02-26T03:34:09;1.70;99.90
3562;DHT22;1795;52.074;4.754;2023-02-26T03:36:42;1.60;99.90
3562;DHT22;1795;52.074;4.754;2023-02-26T03:39:15;1.60;99.90
3562;DHT22;1795;52.074;4.754;2023-02-26T03:41:55;1.60;99.90
3562;DHT22;1795;52.074;4.754;2023-02-26T03:44:27;1.60;99.90
3562;DHT22;1795;52.074;4.754;2023-02-26T03:46:59;1.60;99.90
3562;DHT22;1795;52.074;4.754;2023-02-26T03:49:33;1.60;99.90
3562;DHT22;1795;52.074;4.754;2023-02-26T03:52:02;1.60;99.90
3562;DHT22;1795;52.074;4.754;2023-02-26T03:54:34;1.60;99.90
3562;DHT22;1795;52.074;4.754;2023-02-26T03:57:04;1.50;99.90
3562;DHT22;1795;52.074;4.754;2023-02-26T03:59:32;1.50;99.90
3562;DHT22;1795;52.074;4.754;2023-02-26T04:02:03;1.50;99.90
3562;DHT22;1795;52.074;4.754;2023-02-26T04:04:44;1.50;99.90
3562;DHT22;1795;52.074;4.754;2023-02-26T04:07:14;1.50;99.90
3562;DHT22;1795;52.074;4.754;2023-02-26T04:09:46;1.50;99.90
3562;DHT22;1795;52.074;4.754;2023-02-26T04:12:19;1.40;99.90
3562;DHT22;1795;52.074;4.754;2023-02-26T04:14:47;1.40;99.90
3562;DHT22;1795;52.074;4.754;2023-02-26T04:17:15;1.40;99.90
3562;DHT22;1795;52.074;4.754;2023-02-26T04:19:45;1.40;99.90
3562;DHT22;1795;52.074;4.754;2023-02-26T04:22:13;1.40;99.90
3562;DHT22;1795;52.074;4.754;2023-02-26T04:24:42;1.40;99.90
3562;DHT22;1795;52.074;4.754;2023-02-26T04:27:10;1.40;99.90
3562;DHT22;1795;52.074;4.754;2023-02-26T04:29:38;1.40;99.90
3562;DHT22;1795;52.074;4.754;2023-02-26T04:32:06;1.40;99.90
3562;DHT22;1795;52.074;4.754;2023-02-26T04:34:34;1.30;99.90
3562;DHT22;1795;52.074;4.754;2023-02-26T04:37:03;1.30;99.90
3562;DHT22;1795;52.074;4.754;2023-02-26T04:39:31;1.30;99.90
3562;DHT22;1795;52.074;4.754;2023-02-26T04:41:59;1.30;99.90
3562;DHT22;1795;52.074;4.754;2023-02-26T04:44:28;1.30;99.90
3562;DHT22;1795;52.074;4.754;2023-02-26T04:46:57;1.20;99.90
3562;DHT22;1795;52.074;4.754;2023-02-26T04:49:24;1.20;99.90
3562;DHT22;1795;52.074;4.754;2023-02-26T04:51:52;1.20;99.90
3562;DHT22;1795;52.074;4.754;2023-02-26T04:54:22;1.20;99.90
3562;DHT22;1795;52.074;4.754;2023-02-26T04:56:50;1.20;99.90
3562;DHT22;1795;52.074;4.754;2023-02-26T04:59:18;1.20;99.90
3562;DHT22;1795;52.074;4.754;2023-02-26T05:01:46;1.20;99.90
3562;DHT22;1795;52.074;4.754;2023-02-26T05:04:14;1.20;99.90
3562;DHT22;1795;52.074;4.754;2023-02-26T05:06:42;1.10;99.90
3562;DHT22;1795;52.074;4.754;2023-02-26T05:09:10;1.20;99.90
3562;DHT22;1795;52.074;4.754;2023-02-26T05:11:39;1.10;99.90
3562;DHT22;1795;52.074;4.754;2023-02-26T05:14:07;1.10;99.90
3562;DHT22;1795;52.074;4.754;2023-02-26T05:16:35;1.10;99.90
3562;DHT22;1795;52.074;4.754;2023-02-26T05:19:04;1.10;99.90
3562;DHT22;1795;52.074;4.754;2023-02-26T05:21:32;1.10;99.90
3562;DHT22;1795;52.074;4.754;2023-02-26T05:24:00;1.00;99.90
3562;DHT22;1795;52.074;4.754;2023-02-26T05:26:28;1.00;99.90
3562;DHT22;1795;52.074;4.754;2023-02-26T05:28:57;1.00;99.90
3562;DHT22;1795;52.074;4.754;2023-02-26T05:31:25;1.00;99.90
3562;DHT22;1795;52.074;4.754;2023-02-26T05:33:54;1.00;99.90
3562;DHT22;1795;52.074;4.754;2023-02-26T05:36:22;1.00;99.90
3562;DHT22;1795;52.074;4.754;2023-02-26T05:38:50;0.90;99.90
3562;DHT22;1795;52.074;4.754;2023-02-26T05:41:19;0.90;99.90
3562;DHT22;1795;52.074;4.754;2023-02-26T05:43:47;0.90;99.90
3562;DHT22;1795;52.074;4.754;2023-02-26T05:46:17;0.90;99.90
3562;DHT22;1795;52.074;4.754;2023-02-26T05:48:45;0.90;99.90
3562;DHT22;1795;52.074;4.754;2023-02-26T05:51:13;0.90;99.90
3562;DHT22;1795;52.074;4.754;2023-02-26T05:53:41;0.90;99.90
3562;DHT22;1795;52.074;4.754;2023-02-26T05:56:09;0.80;99.90
3562;DHT22;1795;52.074;4.754;2023-02-26T05:58:37;0.80;99.90
3562;DHT22;1795;52.074;4.754;2023-02-26T06:01:05;0.80;99.90
3562;DHT22;1795;52.074;4.754;2023-02-26T06:03:34;0.80;99.90
3562;DHT22;1795;52.074;4.754;2023-02-26T06:06:03;0.80;99.90
3562;DHT22;1795;52.074;4.754;2023-02-26T06:08:31;0.80;99.90
3562;DHT22;1795;52.074;4.754;2023-02-26T06:10:59;0.80;99.90
3562;DHT22;1795;52.074;4.754;2023-02-26T06:13:27;0.70;99.90
3562;DHT22;1795;52.074;4.754;2023-02-26T06:15:55;0.70;99.90
3562;DHT22;1795;52.074;4.754;2023-02-26T06:18:23;0.70;99.90
3562;DHT22;1795;52.074;4.754;2023-02-26T06:20:52;0.70;99.90
3562;DHT22;1795;52.074;4.754;2023-02-26T06:23:20;0.70;99.90
3562;DHT22;1795;52.074;4.754;2023-02-26T06:25:49;0.60;99.90
3562;DHT22;1795;52.074;4.754;2023-02-26T06:28:18;0.60;99.90
3562;DHT22;1795;52.074;4.754;2023-02-26T06:30:46;0.60;99.90
3562;DHT22;1795;52.074;4.754;2023-02-26T06:33:14;0.60;99.90
3562;DHT22;1795;52.074;4.754;2023-02-26T06:35:42;0.60;99.90
3562;DHT22;1795;52.074;4.754;2023-02-26T06:38:11;0.60;99.90
3562;DHT22;1795;52.074;4.754;2023-02-26T06:40:39;0.60;99.90
3562;DHT22;1795;52.074;4.754;2023-02-26T06:43:07;0.60;99.90
3562;DHT22;1795;52.074;4.754;2023-02-26T06:45:35;0.60;99.90
3562;DHT22;1795;52.074;4.754;2023-02-26T06:48:04;0.60;99.90
3562;DHT22;1795;52.074;4.754;2023-02-26T06:50:32;0.60;99.90
3562;DHT22;1795;52.074;4.754;2023-02-26T06:53:00;0.60;99.90
3562;DHT22;1795;52.074;4.754;2023-02-26T06:55:29;0.60;99.90
3562;DHT22;1795;52.074;4.754;2023-02-26T06:57:57;0.60;99.90
3562;DHT22;1795;52.074;4.754;2023-02-26T07:00:25;0.60;99.90
3562;DHT22;1795;52.074;4.754;2023-02-26T07:02:53;0.60;99.90
3562;DHT22;1795;52.074;4.754;2023-02-26T07:05:21;0.60;99.90
3562;DHT22;1795;52.074;4.754;2023-02-26T07:07:49;0.60;99.90
3562;DHT22;1795;52.074;4.754;2023-02-26T07:10:17;0.60;99.90
3562;DHT22;1795;52.074;4.754;2023-02-26T07:12:48;0.60;99.90
3562;DHT22;1795;52.074;4.754;2023-02-26T07:15:16;0.60;99.90
3562;DHT22;1795;52.074;4.754;2023-02-26T07:17:44;0.60;99.90
3562;DHT22;1795;52.074;4.754;2023-02-26T07:20:12;0.60;99.90
3562;DHT22;1795;52.074;4.754;2023-02-26T07:22:41;0.60;99.90
3562;DHT22;1795;52.074;4.754;2023-02-26T07:25:09;0.60;99.90
3562;DHT22;1795;52.074;4.754;2023-02-26T07:27:37;0.60;99.90
3562;DHT22;1795;52.074;4.754;2023-02-26T07:30:11;0.70;99.90
3562;DHT22;1795;52.074;4.754;2023-02-26T07:32:40;0.60;99.90
3562;DHT22;1795;52.074;4.754;2023-02-26T07:35:09;0.60;99.90
3562;DHT22;1795;52.074;4.754;2023-02-26T07:37:37;0.60;99.90
3562;DHT22;1795;52.074;4.754;2023-02-26T07:40:06;0.60;99.90
3562;DHT22;1795;52.074;4.754;2023-02-26T07:42:34;0.60;99.90
3562;DHT22;1795;52.074;4.754;2023-02-26T07:45:02;0.60;99.90
3562;DHT22;1795;52.074;4.754;2023-02-26T07:47:32;0.60;99.90
3562;DHT22;1795;52.074;4.754;2023-02-26T07:50:00;0.60;99.90
3562;DHT22;1795;52.074;4.754;2023-02-26T07:52:28;0.60;99.90
3562;DHT22;1795;52.074;4.754;2023-02-26T07:54:56;0.60;99.90
3562;DHT22;1795;52.074;4.754;2023-02-26T07:57:24;0.60;99.90
3562;DHT22;1795;52.074;4.754;2023-02-26T07:59:52;0.60;99.90
3562;DHT22;1795;52.074;4.754;2023-02-26T08:02:20;0.60;99.90
3562;DHT22;1795;52.074;4.754;2023-02-26T08:04:50;0.60;99.90
3562;DHT22;1795;52.074;4.754;2023-02-26T08:07:18;0.60;99.90
3562;DHT22;1795;52.074;4.754;2023-02-26T08:09:46;0.60;99.90
3562;DHT22;1795;52.074;4.754;2023-02-26T08:12:14;0.60;99.90
3562;DHT22;1795;52.074;4.754;2023-02-26T08:14:42;0.70;99.90
3562;DHT22;1795;52.074;4.754;2023-02-26T08:17:10;0.70;99.90
3562;DHT22;1795;52.074;4.754;2023-02-26T08:19:38;0.70;99.90
3562;DHT22;1795;52.074;4.754;2023-02-26T08:22:07;0.70;99.90
3562;DHT22;1795;52.074;4.754;2023-02-26T08:24:35;0.70;99.90
3562;DHT22;1795;52.074;4.754;2023-02-26T08:27:04;0.70;99.90
3562;DHT22;1795;52.074;4.754;2023-02-26T08:29:32;0.70;99.90
3562;DHT22;1795;52.074;4.754;2023-02-26T08:32:00;0.70;99.90
3562;DHT22;1795;52.074;4.754;2023-02-26T08:34:29;0.70;99.90
3562;DHT22;1795;52.074;4.754;2023-02-26T08:36:57;0.80;99.90
3562;DHT22;1795;52.074;4.754;2023-02-26T08:39:26;0.80;99.90
3562;DHT22;1795;52.074;4.754;2023-02-26T08:41:58;0.80;99.90
3562;DHT22;1795;52.074;4.754;2023-02-26T08:44:26;0.80;99.90
3562;DHT22;1795;52.074;4.754;2023-02-26T08:46:54;0.90;99.90
3562;DHT22;1795;52.074;4.754;2023-02-26T08:49:22;0.90;99.90
3562;DHT22;1795;52.074;4.754;2023-02-26T08:51:50;1.00;99.90
3562;DHT22;1795;52.074;4.754;2023-02-26T08:54:18;1.00;99.90
3562;DHT22;1795;52.074;4.754;2023-02-26T08:56:48;1.00;99.90
3562;DHT22;1795;52.074;4.754;2023-02-26T08:59:16;1.10;99.90
3562;DHT22;1795;52.074;4.754;2023-02-26T09:01:44;1.10;99.90
3562;DHT22;1795;52.074;4.754;2023-02-26T09:04:12;1.20;99.90
3562;DHT22;1795;52.074;4.754;2023-02-26T09:06:40;1.20;99.90
3562;DHT22;1795;52.074;4.754;2023-02-26T09:09:08;1.30;99.90
3562;DHT22;1795;52.074;4.754;2023-02-26T09:11:37;1.40;99.90
3562;DHT22;1795;52.074;4.754;2023-02-26T09:14:06;1.40;99.90
3562;DHT22;1795;52.074;4.754;2023-02-26T09:16:34;1.50;99.90
3562;DHT22;1795;52.074;4.754;2023-02-26T09:19:03;1.50;99.90
3562;DHT22;1795;52.074;4.754;2023-02-26T09:21:31;1.60;99.90
3562;DHT22;1795;52.074;4.754;2023-02-26T09:24:01;1.70;99.90
3562;DHT22;1795;52.074;4.754;2023-02-26T09:26:29;1.70;99.90
3562;DHT22;1795;52.074;4.754;2023-02-26T09:28:57;1.80;99.90
3562;DHT22;1795;52.074;4.754;2023-02-26T09:31:27;1.90;99.90
3562;DHT22;1795;52.074;4.754;2023-02-26T09:33:55;1.90;99.90
3562;DHT22;1795;52.074;4.754;2023-02-26T09:36:23;2.00;99.90
3562;DHT22;1795;52.074;4.754;2023-02-26T09:38:51;2.10;99.90
3562;DHT22;1795;52.074;4.754;2023-02-26T09:41:23;2.10;99.90
3562;DHT22;1795;52.074;4.754;2023-02-26T09:44:05;2.20;99.90
3562;DHT22;1795;52.074;4.754;2023-02-26T09:46:43;2.30;99.90
3562;DHT22;1795;52.074;4.754;2023-02-26T09:49:26;2.40;99.90
3562;DHT22;1795;52.074;4.754;2023-02-26T09:51:59;2.50;99.90
3562;DHT22;1795;52.074;4.754;2023-02-26T09:54:40;2.60;99.90
3562;DHT22;1795;52.074;4.754;2023-02-26T09:57:14;2.70;99.90
3562;DHT22;1795;52.074;4.754;2023-02-26T09:59:47;2.80;99.90
3562;DHT22;1795;52.074;4.754;2023-02-26T10:02:23;2.90;99.90
3562;DHT22;1795;52.074;4.754;2023-02-26T10:04:59;2.90;99.90
3562;DHT22;1795;52.074;4.754;2023-02-26T10:07:37;3.00;99.90
3562;DHT22;1795;52.074;4.754;2023-02-26T10:10:17;3.00;99.90
3562;DHT22;1795;52.074;4.754;2023-02-26T10:12:48;3.10;99.90
3562;DHT22;1795;52.074;4.754;2023-02-26T10:15:21;3.20;99.90
3562;DHT22;1795;52.074;4.754;2023-02-26T10:18:03;3.20;99.90
3562;DHT22;1795;52.074;4.754;2023-02-26T10:20:37;3.30;99.90
3562;DHT22;1795;52.074;4.754;2023-02-26T10:23:17;3.30;99.90
3562;DHT22;1795;52.074;4.754;2023-02-26T10:25:49;3.40;99.90
3562;DHT22;1795;52.074;4.754;2023-02-26T10:28:38;3.40;99.90
3562;DHT22;1795;52.074;4.754;2023-02-26T10:31:16;3.50;99.90
3562;DHT22;1795;52.074;4.754;2023-02-26T10:33:52;3.50;99.90
3562;DHT22;1795;52.074;4.754;2023-02-26T10:36:26;3.60;99.90
3562;DHT22;1795;52.074;4.754;2023-02-26T10:39:01;3.70;99.90
3562;DHT22;1795;52.074;4.754;2023-02-26T10:41:33;3.70;99.90
3562;DHT22;1795;52.074;4.754;2023-02-26T10:44:11;3.80;99.90
3562;DHT22;1795;52.074;4.754;2023-02-26T10:46:45;3.80;99.90
3562;DHT22;1795;52.074;4.754;2023-02-26T10:49:44;3.90;99.90
3562;DHT22;1795;52.074;4.754;2023-02-26T10:52:15;3.90;99.90
3562;DHT22;1795;52.074;4.754;2023-02-26T10:54:49;4.00;99.90
3562;DHT22;1795;52.074;4.754;2023-02-26T10:57:22;4.00;99.90
3562;DHT22;1795;52.074;4.754;2023-02-26T10:59:50;4.10;99.90
3562;DHT22;1795;52.074;4.754;2023-02-26T11:02:33;4.10;99.90
3562;DHT22;1795;52.074;4.754;2023-02-26T11:05:04;4.20;99.90
3562;DHT22;1795;52.074;4.754;2023-02-26T11:07:36;4.20;99.90
3562;DHT22;1795;52.074;4.754;2023-02-26T11:10:13;4.30;99.90
3562;DHT22;1795;52.074;4.754;2023-02-26T11:12:43;4.30;99.90
3562;DHT22;1795;52.074;4.754;2023-02-26T11:15:16;4.40;99.90
3562;DHT22;1795;52.074;4.754;2023-02-26T11:17:45;4.40;99.90
3562;DHT22;1795;52.074;4.754;2023-02-26T11:20:18;4.50;99.90
3562;DHT22;1795;52.074;4.754;2023-02-26T11:22:53;4.50;99.90
3562;DHT22;1795;52.074;4.754;2023-02-26T11:25:24;4.60;99.90
3562;DHT22;1795;52.074;4.754;2023-02-26T11:27:58;4.60;99.90
3562;DHT22;1795;52.074;4.754;2023-02-26T11:30:30;4.70;99.90
3562;DHT22;1795;52.074;4.754;2023-02-26T11:33:05;4.70;99.90
3562;DHT22;1795;52.074;4.754;2023-02-26T11:35:35;4.80;99.90
3562;DHT22;1795;52.074;4.754;2023-02-26T11:38:03;4.80;99.90
3562;DHT22;1795;52.074;4.754;2023-02-26T11:40:37;4.90;99.90
3562;DHT22;1795;52.074;4.754;2023-02-26T11:43:10;4.90;99.90
3562;DHT22;1795;52.074;4.754;2023-02-26T11:45:42;5.00;99.90
3562;DHT22;1795;52.074;4.754;2023-02-26T11:48:14;5.00;99.90
3562;DHT22;1795;52.074;4.754;2023-02-26T11:50:47;5.00;99.90
3562;DHT22;1795;52.074;4.754;2023-02-26T11:53:17;5.10;99.90
3562;DHT22;1795;52.074;4.754;2023-02-26T11:55:46;5.10;99.90
3562;DHT22;1795;52.074;4.754;2023-02-26T11:58:19;5.20;99.90
3562;DHT22;1795;52.074;4.754;2023-02-26T12:00:51;5.20;99.90
3562;DHT22;1795;52.074;4.754;2023-02-26T12:03:21;5.20;99.90
3562;DHT22;1795;52.074;4.754;2023-02-26T12:05:51;5.30;99.90
3562;DHT22;1795;52.074;4.754;2023-02-26T12:08:25;5.30;99.90
3562;DHT22;1795;52.074;4.754;2023-02-26T12:11:05;5.30;99.90
3562;DHT22;1795;52.074;4.754;2023-02-26T12:13:40;5.40;99.90
3562;DHT22;1795;52.074;4.754;2023-02-26T12:16:15;5.40;99.90
3562;DHT22;1795;52.074;4.754;2023-02-26T12:18:55;5.50;99.90
3562;DHT22;1795;52.074;4.754;2023-02-26T12:21:49;5.50;99.90
3562;DHT22;1795;52.074;4.754;2023-02-26T12:24:33;5.50;99.90
3562;DHT22;1795;52.074;4.754;2023-02-26T12:27:07;5.60;99.90
3562;DHT22;1795;52.074;4.754;2023-02-26T12:29:59;5.60;99.90
3562;DHT22;1795;52.074;4.754;2023-02-26T12:32:38;5.70;99.90
3562;DHT22;1795;52.074;4.754;2023-02-26T12:38:24;5.80;99.90
3562;DHT22;1795;52.074;4.754;2023-02-26T12:41:31;5.90;99.90
3562;DHT22;1795;52.074;4.754;2023-02-26T12:44:18;6.00;99.90
3562;DHT22;1795;52.074;4.754;2023-02-26T12:47:02;6.10;99.90
3562;DHT22;1795;52.074;4.754;2023-02-26T12:49:53;6.10;99.90
3562;DHT22;1795;52.074;4.754;2023-02-26T12:52:46;6.10;99.90
3562;DHT22;1795;52.074;4.754;2023-02-26T12:55:26;6.10;99.90
3562;DHT22;1795;52.074;4.754;2023-02-26T13:01:30;6.20;99.90
3562;DHT22;1795;52.074;4.754;2023-02-26T13:04:35;6.20;99.90
3562;DHT22;1795;52.074;4.754;2023-02-26T13:07:35;6.30;99.90
3562;DHT22;1795;52.074;4.754;2023-02-26T13:10:15;6.30;99.90
3562;DHT22;1795;52.074;4.754;2023-02-26T13:12:53;6.40;99.90
3562;DHT22;1795;52.074;4.754;2023-02-26T13:15:47;6.40;99.90
3562;DHT22;1795;52.074;4.754;2023-02-26T13:18:22;6.40;99.90
3562;DHT22;1795;52.074;4.754;2023-02-26T13:20:56;6.50;99.90
3562;DHT22;1795;52.074;4.754;2023-02-26T13:23:30;6.50;99.90
3562;DHT22;1795;52.074;4.754;2023-02-26T13:26:01;6.60;99.90
3562;DHT22;1795;52.074;4.754;2023-02-26T13:28:38;6.60;99.90
3562;DHT22;1795;52.074;4.754;2023-02-26T13:31:11;6.60;99.90
3562;DHT22;1795;52.074;4.754;2023-02-26T13:33:40;6.70;99.90
3562;DHT22;1795;52.074;4.754;2023-02-26T13:36:09;6.70;99.90
3562;DHT22;1795;52.074;4.754;2023-02-26T13:38:45;6.70;99.90
3562;DHT22;1795;52.074;4.754;2023-02-26T13:41:21;6.60;99.90
3562;DHT22;1795;52.074;4.754;2023-02-26T13:44:06;6.70;99.90
3562;DHT22;1795;52.074;4.754;2023-02-26T13:46:51;6.60;99.90
3562;DHT22;1795;52.074;4.754;2023-02-26T13:49:24;6.60;99.90
3562;DHT22;1795;52.074;4.754;2023-02-26T13:51:54;6.70;99.90
3562;DHT22;1795;52.074;4.754;2023-02-26T13:54:33;6.70;99.90
3562;DHT22;1795;52.074;4.754;2023-02-26T13:57:19;6.80;99.90
3562;DHT22;1795;52.074;4.754;2023-02-26T13:59:53;6.90;99.90
3562;DHT22;1795;52.074;4.754;2023-02-26T14:02:49;7.00;99.90
3562;DHT22;1795;52.074;4.754;2023-02-26T14:08:48;7.20;99.90
3562;DHT22;1795;52.074;4.754;2023-02-26T14:14:21;7.40;99.90
3562;DHT22;1795;52.074;4.754;2023-02-26T14:16:58;7.40;99.90
3562;DHT22;1795;52.074;4.754;2023-02-26T14:20:15;7.40;99.90
3562;DHT22;1795;52.074;4.754;2023-02-26T14:22:47;7.40;99.90
3562;DHT22;1795;52.074;4.754;2023-02-26T14:25:19;7.30;99.90
3562;DHT22;1795;52.074;4.754;2023-02-26T14:27:49;7.30;99.90
3562;DHT22;1795;52.074;4.754;2023-02-26T14:30:26;7.20;99.90
3562;DHT22;1795;52.074;4.754;2023-02-26T14:33:07;7.20;99.90
3562;DHT22;1795;52.074;4.754;2023-02-26T14:35:40;7.20;99.90
3562;DHT22;1795;52.074;4.754;2023-02-26T14:38:13;7.20;99.90
3562;DHT22;1795;52.074;4.754;2023-02-26T14:40:46;7.20;99.90
3562;DHT22;1795;52.074;4.754;2023-02-26T14:43:19;7.10;99.90
3562;DHT22;1795;52.074;4.754;2023-02-26T14:45:49;7.20;99.90
3562;DHT22;1795;52.074;4.754;2023-02-26T14:48:21;7.10;99.90
3562;DHT22;1795;52.074;4.754;2023-02-26T14:51:05;7.10;99.90
3562;DHT22;1795;52.074;4.754;2023-02-26T14:53:55;7.10;99.90
3562;DHT22;1795;52.074;4.754;2023-02-26T14:56:32;7.10;99.90
3562;DHT22;1795;52.074;4.754;2023-02-26T14:59:19;7.10;99.90
3562;DHT22;1795;52.074;4.754;2023-02-26T15:01:58;7.00;99.90
3562;DHT22;1795;52.074;4.754;2023-02-26T15:04:51;7.00;99.90
3562;DHT22;1795;52.074;4.754;2023-02-26T15:07:31;7.00;99.90
3562;DHT22;1795;52.074;4.754;2023-02-26T15:10:14;6.90;99.90
3562;DHT22;1795;52.074;4.754;2023-02-26T15:13:18;7.00;99.90
3562;DHT22;1795;52.074;4.754;2023-02-26T15:15:54;7.00;99.90
3562;DHT22;1795;52.074;4.754;2023-02-26T15:18:48;6.90;99.90
3562;DHT22;1795;52.074;4.754;2023-02-26T15:21:27;6.90;99.90
3562;DHT22;1795;52.074;4.754;2023-02-26T15:23:58;6.90;99.90
3562;DHT22;1795;52.074;4.754;2023-02-26T15:26:28;6.90;99.90
3562;DHT22;1795;52.074;4.754;2023-02-26T15:28:59;6.90;99.90
3562;DHT22;1795;52.074;4.754;2023-02-26T15:31:32;7.00;99.90
3562;DHT22;1795;52.074;4.754;2023-02-26T15:34:02;7.00;99.90
3562;DHT22;1795;52.074;4.754;2023-02-26T15:36:31;6.90;99.90
3562;DHT22;1795;52.074;4.754;2023-02-26T15:39:00;6.90;99.90
3562;DHT22;1795;52.074;4.754;2023-02-26T15:41:30;6.90;99.90
3562;DHT22;1795;52.074;4.754;2023-02-26T15:44:02;7.00;99.90
3562;DHT22;1795;52.074;4.754;2023-02-26T15:46:34;6.90;99.90
3562;DHT22;1795;52.074;4.754;2023-02-26T15:49:11;7.00;99.90
3562;DHT22;1795;52.074;4.754;2023-02-26T15:51:45;7.00;99.90
3562;DHT22;1795;52.074;4.754;2023-02-26T15:54:16;7.00;99.90
3562;DHT22;1795;52.074;4.754;2023-02-26T15:56:45;6.90;99.90
3562;DHT22;1795;52.074;4.754;2023-02-26T15:59:17;6.90;99.90
3562;DHT22;1795;52.074;4.754;2023-02-26T16:01:48;6.90;99.90
3562;DHT22;1795;52.074;4.754;2023-02-26T16:04:17;6.90;99.90
3562;DHT22;1795;52.074;4.754;2023-02-26T16:06:48;6.90;99.90
3562;DHT22;1795;52.074;4.754;2023-02-26T16:09:19;6.90;99.90
3562;DHT22;1795;52.074;4.754;2023-02-26T16:11:48;6.80;99.90
3562;DHT22;1795;52.074;4.754;2023-02-26T16:14:19;6.80;99.90
3562;DHT22;1795;52.074;4.754;2023-02-26T16:16:49;6.80;99.90
3562;DHT22;1795;52.074;4.754;2023-02-26T16:19:20;6.80;99.90
3562;DHT22;1795;52.074;4.754;2023-02-26T16:21:53;6.70;99.90
3562;DHT22;1795;52.074;4.754;2023-02-26T16:24:22;6.70;99.90
3562;DHT22;1795;52.074;4.754;2023-02-26T16:26:52;6.60;99.90
3562;DHT22;1795;52.074;4.754;2023-02-26T16:29:24;6.60;99.90
3562;DHT22;1795;52.074;4.754;2023-02-26T16:31:54;6.60;99.90
3562;DHT22;1795;52.074;4.754;2023-02-26T16:34:29;6.60;99.90
3562;DHT22;1795;52.074;4.754;2023-02-26T16:37:17;6.60;99.90
3562;DHT22;1795;52.074;4.754;2023-02-26T16:39:51;6.50;99.90
3562;DHT22;1795;52.074;4.754;2023-02-26T16:42:32;6.50;99.90
3562;DHT22;1795;52.074;4.754;2023-02-26T16:45:19;6.50;99.90
3562;DHT22;1795;52.074;4.754;2023-02-26T16:47:51;6.40;99.90
3562;DHT22;1795;52.074;4.754;2023-02-26T16:50:23;6.40;99.90
3562;DHT22;1795;52.074;4.754;2023-02-26T16:52:58;6.40;99.90
3562;DHT22;1795;52.074;4.754;2023-02-26T16:55:29;6.30;99.90
3562;DHT22;1795;52.074;4.754;2023-02-26T16:57:58;6.30;99.90
3562;DHT22;1795;52.074;4.754;2023-02-26T17:00:28;6.20;99.90
3562;DHT22;1795;52.074;4.754;2023-02-26T17:03:01;6.20;99.90
3562;DHT22;1795;52.074;4.754;2023-02-26T17:05:33;6.20;99.90
3562;DHT22;1795;52.074;4.754;2023-02-26T17:08:15;6.10;99.90
3562;DHT22;1795;52.074;4.754;2023-02-26T17:10:45;6.10;99.90
3562;DHT22;1795;52.074;4.754;2023-02-26T17:13:15;6.00;99.90
3562;DHT22;1795;52.074;4.754;2023-02-26T17:15:45;6.00;99.90